sensor_id;sensor_type;location;lat;lon;timestamp;P1;durP1;ratioP1;P2;durP2;ratioP2
71726;SDS011;65960;43.502;3.712;2022-12-31T00:02:05;40.30;;;27.55;;
71726;SDS011;65960;43.502;3.712;2022-12-31T00:04:31;42.05;;;30.23;;
71726;SDS011;65960;43.502;3.712;2022-12-31T00:06:57;40.50;;;29.73;;
71726;SDS011;65960;43.502;3.712;2022-12-31T00:09:22;38.05;;;27.73;;
71726;SDS011;65960;43.502;3.712;2022-12-31T00:11:48;38.10;;;27.83;;
71726;SDS011;65960;43.502;3.712;2022-12-31T00:14:14;35.35;;;25.40;;
71726;SDS011;65960;43.502;3.712;2022-12-31T00:16:40;41.65;;;27.98;;
71726;SDS011;65960;43.502;3.712;2022-12-31T00:19:08;36.47;;;26.67;;
71726;SDS011;65960;43.502;3.712;2022-12-31T00:21:35;33.67;;;26.90;;
71726;SDS011;65960;43.502;3.712;2022-12-31T00:24:02;32.47;;;22.48;;
71726;SDS011;65960;43.502;3.712;2022-12-31T00:26:30;33.67;;;26.48;;
71726;SDS011;65960;43.502;3.712;2022-12-31T00:28:57;35.17;;;26.65;;
71726;SDS011;65960;43.502;3.712;2022-12-31T00:31:25;32.95;;;26.42;;
71726;SDS011;65960;43.502;3.712;2022-12-31T00:33:55;34.83;;;25.63;;
71726;SDS011;65960;43.502;3.712;2022-12-31T00:36:23;34.63;;;25.00;;
71726;SDS011;65960;43.502;3.712;2022-12-31T00:38:49;34.05;;;25.65;;
71726;SDS011;65960;43.502;3.712;2022-12-31T00:41:17;34.03;;;25.40;;
71726;SDS011;65960;43.502;3.712;2022-12-31T00:43:44;36.80;;;27.52;;
71726;SDS011;65960;43.502;3.712;2022-12-31T00:46:10;40.13;;;25.95;;
71726;SDS011;65960;43.502;3.712;2022-12-31T00:48:37;33.83;;;26.02;;
71726;SDS011;65960;43.502;3.712;2022-12-31T00:51:03;34.50;;;25.25;;
71726;SDS011;65960;43.502;3.712;2022-12-31T00:53:30;32.60;;;26.35;;
71726;SDS011;65960;43.502;3.712;2022-12-31T00:56:05;33.13;;;24.30;;
71726;SDS011;65960;43.502;3.712;2022-12-31T00:58:33;32.20;;;24.50;;
71726;SDS011;65960;43.502;3.712;2022-12-31T01:01:08;33.28;;;23.90;;
71726;SDS011;65960;43.502;3.712;2022-12-31T01:03:36;36.22;;;23.70;;
71726;SDS011;65960;43.502;3.712;2022-12-31T01:06:02;26.83;;;19.88;;
71726;SDS011;65960;43.502;3.712;2022-12-31T01:08:28;28.20;;;19.95;;
71726;SDS011;65960;43.502;3.712;2022-12-31T01:10:54;31.83;;;23.15;;
71726;SDS011;65960;43.502;3.712;2022-12-31T01:13:39;35.60;;;27.00;;
71726;SDS011;65960;43.502;3.712;2022-12-31T01:16:06;30.73;;;21.65;;
71726;SDS011;65960;43.502;3.712;2022-12-31T01:18:32;29.75;;;22.58;;
71726;SDS011;65960;43.502;3.712;2022-12-31T01:20:59;31.95;;;23.25;;
71726;SDS011;65960;43.502;3.712;2022-12-31T01:23:26;31.70;;;21.30;;
71726;SDS011;65960;43.502;3.712;2022-12-31T01:25:52;27.05;;;22.02;;
71726;SDS011;65960;43.502;3.712;2022-12-31T01:28:18;36.22;;;23.77;;
71726;SDS011;65960;43.502;3.712;2022-12-31T01:30:44;31.52;;;22.50;;
71726;SDS011;65960;43.502;3.712;2022-12-31T01:33:10;26.67;;;18.75;;
71726;SDS011;65960;43.502;3.712;2022-12-31T01:35:36;30.20;;;20.80;;
71726;SDS011;65960;43.502;3.712;2022-12-31T01:38:02;27.38;;;20.05;;
71726;SDS011;65960;43.502;3.712;2022-12-31T01:40:28;29.50;;;22.95;;
71726;SDS011;65960;43.502;3.712;2022-12-31T01:42:54;31.27;;;23.00;;
71726;SDS011;65960;43.502;3.712;2022-12-31T01:45:21;30.52;;;22.50;;
71726;SDS011;65960;43.502;3.712;2022-12-31T01:47:48;35.42;;;24.45;;
71726;SDS011;65960;43.502;3.712;2022-12-31T01:52:44;31.20;;;22.90;;
71726;SDS011;65960;43.502;3.712;2022-12-31T01:55:14;30.65;;;21.73;;
71726;SDS011;65960;43.502;3.712;2022-12-31T01:57:41;30.38;;;20.70;;
71726;SDS011;65960;43.502;3.712;2022-12-31T02:00:08;31.77;;;22.23;;
71726;SDS011;65960;43.502;3.712;2022-12-31T02:02:34;33.53;;;23.70;;
71726;SDS011;65960;43.502;3.712;2022-12-31T02:05:02;30.83;;;21.83;;
71726;SDS011;65960;43.502;3.712;2022-12-31T02:07:36;29.20;;;21.02;;
71726;SDS011;65960;43.502;3.712;2022-12-31T02:10:02;31.40;;;24.05;;
71726;SDS011;65960;43.502;3.712;2022-12-31T02:12:28;32.13;;;24.10;;
71726;SDS011;65960;43.502;3.712;2022-12-31T02:14:54;32.70;;;24.40;;
71726;SDS011;65960;43.502;3.712;2022-12-31T02:20:07;32.95;;;23.15;;
71726;SDS011;65960;43.502;3.712;2022-12-31T02:30:59;32.67;;;23.27;;
71726;SDS011;65960;43.502;3.712;2022-12-31T02:33:34;33.30;;;23.55;;
71726;SDS011;65960;43.502;3.712;2022-12-31T02:36:02;32.65;;;23.08;;
71726;SDS011;65960;43.502;3.712;2022-12-31T02:38:34;37.75;;;24.27;;
71726;SDS011;65960;43.502;3.712;2022-12-31T02:41:01;33.58;;;23.45;;
71726;SDS011;65960;43.502;3.712;2022-12-31T02:43:27;27.52;;;21.45;;
71726;SDS011;65960;43.502;3.712;2022-12-31T02:48:28;31.83;;;23.00;;
71726;SDS011;65960;43.502;3.712;2022-12-31T02:51:05;30.93;;;22.23;;
71726;SDS011;65960;43.502;3.712;2022-12-31T02:56:18;36.17;;;21.80;;
71726;SDS011;65960;43.502;3.712;2022-12-31T03:01:34;33.22;;;21.05;;
71726;SDS011;65960;43.502;3.712;2022-12-31T03:04:20;26.98;;;21.10;;
71726;SDS011;65960;43.502;3.712;2022-12-31T03:06:58;29.65;;;20.17;;
71726;SDS011;65960;43.502;3.712;2022-12-31T03:09:25;28.38;;;18.42;;
71726;SDS011;65960;43.502;3.712;2022-12-31T03:11:51;26.73;;;17.55;;
71726;SDS011;65960;43.502;3.712;2022-12-31T03:14:35;28.02;;;19.80;;
71726;SDS011;65960;43.502;3.712;2022-12-31T03:17:01;24.52;;;18.27;;
71726;SDS011;65960;43.502;3.712;2022-12-31T03:19:26;26.45;;;18.95;;
71726;SDS011;65960;43.502;3.712;2022-12-31T03:22:11;25.63;;;19.52;;
71726;SDS011;65960;43.502;3.712;2022-12-31T03:24:56;26.60;;;19.60;;
71726;SDS011;65960;43.502;3.712;2022-12-31T03:27:44;23.70;;;18.02;;
71726;SDS011;65960;43.502;3.712;2022-12-31T03:30:11;26.25;;;18.45;;
71726;SDS011;65960;43.502;3.712;2022-12-31T03:32:38;24.13;;;17.92;;
71726;SDS011;65960;43.502;3.712;2022-12-31T03:35:04;24.30;;;17.95;;
71726;SDS011;65960;43.502;3.712;2022-12-31T03:37:31;26.08;;;19.40;;
71726;SDS011;65960;43.502;3.712;2022-12-31T03:39:56;26.80;;;17.48;;
71726;SDS011;65960;43.502;3.712;2022-12-31T03:42:22;25.13;;;18.02;;
71726;SDS011;65960;43.502;3.712;2022-12-31T03:44:48;25.02;;;17.13;;
71726;SDS011;65960;43.502;3.712;2022-12-31T03:47:14;25.15;;;17.27;;
71726;SDS011;65960;43.502;3.712;2022-12-31T03:49:39;22.23;;;15.70;;
71726;SDS011;65960;43.502;3.712;2022-12-31T03:52:05;28.55;;;17.75;;
71726;SDS011;65960;43.502;3.712;2022-12-31T03:54:32;24.02;;;16.92;;
71726;SDS011;65960;43.502;3.712;2022-12-31T03:56:58;23.27;;;16.48;;
71726;SDS011;65960;43.502;3.712;2022-12-31T03:59:24;24.15;;;17.20;;
71726;SDS011;65960;43.502;3.712;2022-12-31T04:01:50;21.48;;;17.33;;
71726;SDS011;65960;43.502;3.712;2022-12-31T04:04:16;20.70;;;14.50;;
71726;SDS011;65960;43.502;3.712;2022-12-31T04:06:42;24.50;;;17.20;;
71726;SDS011;65960;43.502;3.712;2022-12-31T04:09:08;20.52;;;16.45;;
71726;SDS011;65960;43.502;3.712;2022-12-31T04:11:34;22.90;;;16.40;;
71726;SDS011;65960;43.502;3.712;2022-12-31T04:14:00;21.42;;;15.57;;
71726;SDS011;65960;43.502;3.712;2022-12-31T04:16:25;23.48;;;15.88;;
71726;SDS011;65960;43.502;3.712;2022-12-31T04:18:51;19.92;;;14.40;;
71726;SDS011;65960;43.502;3.712;2022-12-31T04:21:17;24.92;;;14.80;;
71726;SDS011;65960;43.502;3.712;2022-12-31T04:23:43;25.52;;;16.30;;
71726;SDS011;65960;43.502;3.712;2022-12-31T04:26:08;22.10;;;15.27;;
71726;SDS011;65960;43.502;3.712;2022-12-31T04:28:34;20.17;;;14.07;;
71726;SDS011;65960;43.502;3.712;2022-12-31T04:31:00;21.85;;;15.80;;
71726;SDS011;65960;43.502;3.712;2022-12-31T04:33:28;22.10;;;15.30;;
71726;SDS011;65960;43.502;3.712;2022-12-31T04:35:59;25.05;;;16.38;;
71726;SDS011;65960;43.502;3.712;2022-12-31T04:38:28;25.83;;;16.00;;
71726;SDS011;65960;43.502;3.712;2022-12-31T04:40:54;23.17;;;15.82;;
71726;SDS011;65960;43.502;3.712;2022-12-31T04:43:38;22.35;;;14.13;;
71726;SDS011;65960;43.502;3.712;2022-12-31T04:46:04;22.13;;;15.57;;
71726;SDS011;65960;43.502;3.712;2022-12-31T04:48:31;21.23;;;15.35;;
71726;SDS011;65960;43.502;3.712;2022-12-31T04:50:57;21.98;;;15.30;;
71726;SDS011;65960;43.502;3.712;2022-12-31T04:53:23;21.38;;;16.60;;
71726;SDS011;65960;43.502;3.712;2022-12-31T04:55:49;22.88;;;14.77;;
71726;SDS011;65960;43.502;3.712;2022-12-31T04:58:15;23.77;;;15.20;;
71726;SDS011;65960;43.502;3.712;2022-12-31T05:00:41;22.98;;;15.18;;
71726;SDS011;65960;43.502;3.712;2022-12-31T05:03:08;25.30;;;16.00;;
71726;SDS011;65960;43.502;3.712;2022-12-31T05:05:37;22.30;;;16.58;;
71726;SDS011;65960;43.502;3.712;2022-12-31T05:08:03;22.67;;;16.02;;
71726;SDS011;65960;43.502;3.712;2022-12-31T05:10:29;23.45;;;16.63;;
71726;SDS011;65960;43.502;3.712;2022-12-31T05:12:55;26.80;;;17.38;;
71726;SDS011;65960;43.502;3.712;2022-12-31T05:15:20;29.05;;;18.50;;
71726;SDS011;65960;43.502;3.712;2022-12-31T05:17:46;24.20;;;17.17;;
71726;SDS011;65960;43.502;3.712;2022-12-31T05:20:12;23.45;;;16.95;;
71726;SDS011;65960;43.502;3.712;2022-12-31T05:22:38;25.80;;;18.13;;
71726;SDS011;65960;43.502;3.712;2022-12-31T05:25:04;24.10;;;16.83;;
71726;SDS011;65960;43.502;3.712;2022-12-31T05:27:30;25.63;;;17.85;;
71726;SDS011;65960;43.502;3.712;2022-12-31T05:29:56;26.23;;;18.50;;
71726;SDS011;65960;43.502;3.712;2022-12-31T05:32:21;26.95;;;18.52;;
71726;SDS011;65960;43.502;3.712;2022-12-31T05:34:47;26.25;;;16.70;;
71726;SDS011;65960;43.502;3.712;2022-12-31T05:37:13;22.05;;;15.95;;
71726;SDS011;65960;43.502;3.712;2022-12-31T05:39:39;25.60;;;17.88;;
71726;SDS011;65960;43.502;3.712;2022-12-31T05:42:05;23.40;;;16.45;;
71726;SDS011;65960;43.502;3.712;2022-12-31T05:44:31;23.80;;;16.95;;
71726;SDS011;65960;43.502;3.712;2022-12-31T05:46:56;22.88;;;15.63;;
71726;SDS011;65960;43.502;3.712;2022-12-31T05:49:22;23.58;;;15.68;;
71726;SDS011;65960;43.502;3.712;2022-12-31T05:51:48;23.80;;;15.90;;
71726;SDS011;65960;43.502;3.712;2022-12-31T05:54:14;23.92;;;16.30;;
71726;SDS011;65960;43.502;3.712;2022-12-31T05:56:40;22.15;;;14.30;;
71726;SDS011;65960;43.502;3.712;2022-12-31T05:59:05;23.35;;;15.60;;
71726;SDS011;65960;43.502;3.712;2022-12-31T06:01:31;22.65;;;15.13;;
71726;SDS011;65960;43.502;3.712;2022-12-31T06:03:57;24.98;;;16.45;;
71726;SDS011;65960;43.502;3.712;2022-12-31T06:06:23;22.95;;;14.57;;
71726;SDS011;65960;43.502;3.712;2022-12-31T06:08:50;21.88;;;15.85;;
71726;SDS011;65960;43.502;3.712;2022-12-31T06:11:16;21.70;;;15.55;;
71726;SDS011;65960;43.502;3.712;2022-12-31T06:13:42;22.60;;;16.83;;
71726;SDS011;65960;43.502;3.712;2022-12-31T06:16:09;22.75;;;16.02;;
71726;SDS011;65960;43.502;3.712;2022-12-31T06:18:37;20.70;;;15.68;;
71726;SDS011;65960;43.502;3.712;2022-12-31T06:21:03;21.20;;;14.68;;
71726;SDS011;65960;43.502;3.712;2022-12-31T06:23:29;21.73;;;14.82;;
71726;SDS011;65960;43.502;3.712;2022-12-31T06:25:54;21.05;;;15.68;;
71726;SDS011;65960;43.502;3.712;2022-12-31T06:28:20;18.55;;;13.25;;
71726;SDS011;65960;43.502;3.712;2022-12-31T06:30:46;20.95;;;13.23;;
71726;SDS011;65960;43.502;3.712;2022-12-31T06:33:12;21.38;;;14.13;;
71726;SDS011;65960;43.502;3.712;2022-12-31T06:35:38;21.35;;;15.25;;
71726;SDS011;65960;43.502;3.712;2022-12-31T06:38:04;22.52;;;15.23;;
71726;SDS011;65960;43.502;3.712;2022-12-31T06:40:29;20.77;;;13.98;;
71726;SDS011;65960;43.502;3.712;2022-12-31T06:42:55;21.55;;;14.52;;
71726;SDS011;65960;43.502;3.712;2022-12-31T06:45:21;19.55;;;13.63;;
71726;SDS011;65960;43.502;3.712;2022-12-31T06:47:46;21.88;;;14.35;;
71726;SDS011;65960;43.502;3.712;2022-12-31T06:50:12;24.10;;;14.23;;
71726;SDS011;65960;43.502;3.712;2022-12-31T06:52:38;19.23;;;11.82;;
71726;SDS011;65960;43.502;3.712;2022-12-31T06:55:04;21.50;;;13.95;;
71726;SDS011;65960;43.502;3.712;2022-12-31T06:57:30;22.05;;;13.95;;
71726;SDS011;65960;43.502;3.712;2022-12-31T06:59:56;23.02;;;13.85;;
71726;SDS011;65960;43.502;3.712;2022-12-31T07:07:50;20.88;;;14.60;;
71726;SDS011;65960;43.502;3.712;2022-12-31T07:10:20;19.65;;;14.02;;
71726;SDS011;65960;43.502;3.712;2022-12-31T07:18:03;19.13;;;13.30;;
71726;SDS011;65960;43.502;3.712;2022-12-31T07:22:57;34.60;;;24.48;;
71726;SDS011;65960;43.502;3.712;2022-12-31T07:25:23;23.55;;;17.38;;
71726;SDS011;65960;43.502;3.712;2022-12-31T07:30:19;21.40;;;15.30;;
71726;SDS011;65960;43.502;3.712;2022-12-31T07:45:24;26.92;;;18.48;;
71726;SDS011;65960;43.502;3.712;2022-12-31T07:47:52;34.60;;;26.13;;
71726;SDS011;65960;43.502;3.712;2022-12-31T07:50:19;22.00;;;15.45;;
71726;SDS011;65960;43.502;3.712;2022-12-31T07:52:45;23.90;;;15.02;;
71726;SDS011;65960;43.502;3.712;2022-12-31T07:55:11;22.75;;;15.65;;
71726;SDS011;65960;43.502;3.712;2022-12-31T07:57:42;20.98;;;14.48;;
71726;SDS011;65960;43.502;3.712;2022-12-31T08:00:13;25.70;;;18.45;;
71726;SDS011;65960;43.502;3.712;2022-12-31T08:02:50;26.70;;;19.63;;
71726;SDS011;65960;43.502;3.712;2022-12-31T08:08:00;28.55;;;22.77;;
71726;SDS011;65960;43.502;3.712;2022-12-31T08:10:54;37.97;;;28.73;;
71726;SDS011;65960;43.502;3.712;2022-12-31T08:13:38;41.15;;;31.63;;
71726;SDS011;65960;43.502;3.712;2022-12-31T08:16:07;37.33;;;27.70;;
71726;SDS011;65960;43.502;3.712;2022-12-31T08:18:35;43.42;;;31.42;;
71726;SDS011;65960;43.502;3.712;2022-12-31T08:27:08;21.17;;;14.93;;
71726;SDS011;65960;43.502;3.712;2022-12-31T08:32:23;28.05;;;14.23;;
71726;SDS011;65960;43.502;3.712;2022-12-31T08:35:11;24.55;;;16.80;;
71726;SDS011;65960;43.502;3.712;2022-12-31T08:46:38;20.73;;;15.32;;
71726;SDS011;65960;43.502;3.712;2022-12-31T08:49:14;22.75;;;16.92;;
71726;SDS011;65960;43.502;3.712;2022-12-31T08:51:40;29.35;;;18.13;;
71726;SDS011;65960;43.502;3.712;2022-12-31T08:54:08;29.25;;;16.27;;
71726;SDS011;65960;43.502;3.712;2022-12-31T08:56:39;26.60;;;16.17;;
71726;SDS011;65960;43.502;3.712;2022-12-31T09:01:41;24.38;;;14.13;;
71726;SDS011;65960;43.502;3.712;2022-12-31T09:06:58;31.85;;;22.98;;
71726;SDS011;65960;43.502;3.712;2022-12-31T09:19:50;21.50;;;8.68;;
71726;SDS011;65960;43.502;3.712;2022-12-31T09:22:16;19.45;;;9.52;;
71726;SDS011;65960;43.502;3.712;2022-12-31T09:24:42;18.00;;;10.52;;
71726;SDS011;65960;43.502;3.712;2022-12-31T09:27:16;18.20;;;10.90;;
71726;SDS011;65960;43.502;3.712;2022-12-31T09:34:41;24.80;;;11.70;;
71726;SDS011;65960;43.502;3.712;2022-12-31T09:37:23;22.98;;;11.90;;
71726;SDS011;65960;43.502;3.712;2022-12-31T09:39:53;24.02;;;12.05;;
71726;SDS011;65960;43.502;3.712;2022-12-31T09:42:29;18.90;;;9.80;;
71726;SDS011;65960;43.502;3.712;2022-12-31T09:47:56;27.23;;;14.43;;
71726;SDS011;65960;43.502;3.712;2022-12-31T09:53:21;40.38;;;21.65;;
71726;SDS011;65960;43.502;3.712;2022-12-31T10:06:17;22.33;;;11.98;;
71726;SDS011;65960;43.502;3.712;2022-12-31T10:11:31;28.60;;;13.68;;
71726;SDS011;65960;43.502;3.712;2022-12-31T10:17:13;26.08;;;13.90;;
71726;SDS011;65960;43.502;3.712;2022-12-31T10:21:56;32.15;;;15.57;;
71726;SDS011;65960;43.502;3.712;2022-12-31T10:29:41;22.83;;;13.18;;
71726;SDS011;65960;43.502;3.712;2022-12-31T10:34:47;20.33;;;12.45;;
71726;SDS011;65960;43.502;3.712;2022-12-31T10:37:17;22.70;;;12.35;;
71726;SDS011;65960;43.502;3.712;2022-12-31T11:04:03;30.75;;;14.63;;
71726;SDS011;65960;43.502;3.712;2022-12-31T11:12:25;24.45;;;13.57;;
71726;SDS011;65960;43.502;3.712;2022-12-31T11:15:11;29.60;;;14.57;;
71726;SDS011;65960;43.502;3.712;2022-12-31T11:23:13;27.83;;;13.88;;
71726;SDS011;65960;43.502;3.712;2022-12-31T11:31:10;28.17;;;14.70;;
71726;SDS011;65960;43.502;3.712;2022-12-31T11:34:06;22.77;;;12.02;;
71726;SDS011;65960;43.502;3.712;2022-12-31T11:48:03;24.73;;;12.88;;
71726;SDS011;65960;43.502;3.712;2022-12-31T11:56:22;23.98;;;12.52;;
71726;SDS011;65960;43.502;3.712;2022-12-31T11:58:53;25.05;;;11.60;;
71726;SDS011;65960;43.502;3.712;2022-12-31T12:01:38;21.85;;;10.80;;
71726;SDS011;65960;43.502;3.712;2022-12-31T12:04:07;21.23;;;11.93;;
71726;SDS011;65960;43.502;3.712;2022-12-31T12:06:34;25.33;;;12.65;;
71726;SDS011;65960;43.502;3.712;2022-12-31T12:09:08;29.60;;;12.63;;
71726;SDS011;65960;43.502;3.712;2022-12-31T12:11:38;38.25;;;19.88;;
71726;SDS011;65960;43.502;3.712;2022-12-31T12:14:17;30.92;;;15.23;;
71726;SDS011;65960;43.502;3.712;2022-12-31T12:16:55;27.90;;;13.15;;
71726;SDS011;65960;43.502;3.712;2022-12-31T12:19:22;23.60;;;13.05;;
71726;SDS011;65960;43.502;3.712;2022-12-31T12:21:49;27.33;;;15.23;;
71726;SDS011;65960;43.502;3.712;2022-12-31T12:24:20;22.48;;;12.07;;
71726;SDS011;65960;43.502;3.712;2022-12-31T12:26:49;23.70;;;12.35;;
71726;SDS011;65960;43.502;3.712;2022-12-31T12:29:16;33.83;;;18.13;;
71726;SDS011;65960;43.502;3.712;2022-12-31T12:32:49;31.05;;;16.30;;
71726;SDS011;65960;43.502;3.712;2022-12-31T12:34:39;28.75;;;13.20;;
71726;SDS011;65960;43.502;3.712;2022-12-31T12:39:56;30.30;;;15.38;;
71726;SDS011;65960;43.502;3.712;2022-12-31T12:42:27;27.60;;;14.20;;
71726;SDS011;65960;43.502;3.712;2022-12-31T12:45:04;36.78;;;19.42;;
71726;SDS011;65960;43.502;3.712;2022-12-31T12:47:41;26.63;;;16.38;;
71726;SDS011;65960;43.502;3.712;2022-12-31T12:50:14;27.52;;;16.70;;
71726;SDS011;65960;43.502;3.712;2022-12-31T12:52:49;33.22;;;19.83;;
71726;SDS011;65960;43.502;3.712;2022-12-31T12:58:01;35.50;;;21.83;;
71726;SDS011;65960;43.502;3.712;2022-12-31T13:16:36;29.70;;;15.80;;
71726;SDS011;65960;43.502;3.712;2022-12-31T13:24:42;30.00;;;16.42;;
71726;SDS011;65960;43.502;3.712;2022-12-31T13:30:03;32.42;;;18.70;;
71726;SDS011;65960;43.502;3.712;2022-12-31T13:32:38;30.40;;;16.98;;
71726;SDS011;65960;43.502;3.712;2022-12-31T13:37:41;31.33;;;15.73;;
71726;SDS011;65960;43.502;3.712;2022-12-31T13:43:31;26.75;;;13.45;;
71726;SDS011;65960;43.502;3.712;2022-12-31T13:45:37;27.70;;;13.38;;
71726;SDS011;65960;43.502;3.712;2022-12-31T13:48:11;21.17;;;11.82;;
71726;SDS011;65960;43.502;3.712;2022-12-31T13:50:52;24.23;;;12.98;;
71726;SDS011;65960;43.502;3.712;2022-12-31T13:53:31;26.52;;;14.35;;
71726;SDS011;65960;43.502;3.712;2022-12-31T13:56:21;25.55;;;14.02;;
71726;SDS011;65960;43.502;3.712;2022-12-31T13:58:59;21.52;;;11.13;;
71726;SDS011;65960;43.502;3.712;2022-12-31T14:04:35;26.80;;;15.18;;
71726;SDS011;65960;43.502;3.712;2022-12-31T14:07:09;29.65;;;15.05;;
71726;SDS011;65960;43.502;3.712;2022-12-31T14:09:42;24.17;;;14.30;;
71726;SDS011;65960;43.502;3.712;2022-12-31T14:20:22;25.70;;;14.60;;
71726;SDS011;65960;43.502;3.712;2022-12-31T14:23:08;23.75;;;13.05;;
71726;SDS011;65960;43.502;3.712;2022-12-31T14:30:54;20.15;;;10.40;;
71726;SDS011;65960;43.502;3.712;2022-12-31T14:35:58;22.75;;;10.40;;
71726;SDS011;65960;43.502;3.712;2022-12-31T14:41:22;16.67;;;9.95;;
71726;SDS011;65960;43.502;3.712;2022-12-31T14:52:34;25.00;;;11.30;;
71726;SDS011;65960;43.502;3.712;2022-12-31T14:57:39;29.08;;;16.98;;
71726;SDS011;65960;43.502;3.712;2022-12-31T15:02:48;24.15;;;13.15;;
71726;SDS011;65960;43.502;3.712;2022-12-31T15:05:16;22.92;;;12.27;;
71726;SDS011;65960;43.502;3.712;2022-12-31T15:10:13;24.67;;;12.32;;
71726;SDS011;65960;43.502;3.712;2022-12-31T15:12:43;19.42;;;11.43;;
71726;SDS011;65960;43.502;3.712;2022-12-31T15:15:19;22.73;;;12.40;;
71726;SDS011;65960;43.502;3.712;2022-12-31T15:17:52;18.92;;;10.63;;
71726;SDS011;65960;43.502;3.712;2022-12-31T15:22:47;18.85;;;10.50;;
71726;SDS011;65960;43.502;3.712;2022-12-31T15:27:46;22.85;;;12.15;;
71726;SDS011;65960;43.502;3.712;2022-12-31T15:32:51;23.08;;;11.23;;
71726;SDS011;65960;43.502;3.712;2022-12-31T15:38:02;19.40;;;10.60;;
71726;SDS011;65960;43.502;3.712;2022-12-31T15:40:44;25.13;;;13.18;;
71726;SDS011;65960;43.502;3.712;2022-12-31T15:45:52;31.42;;;16.13;;
71726;SDS011;65960;43.502;3.712;2022-12-31T15:50:48;32.88;;;16.17;;
71726;SDS011;65960;43.502;3.712;2022-12-31T15:54:01;49.17;;;25.40;;
71726;SDS011;65960;43.502;3.712;2022-12-31T15:56:14;40.15;;;21.10;;
71726;SDS011;65960;43.502;3.712;2022-12-31T15:58:44;42.92;;;23.85;;
71726;SDS011;65960;43.502;3.712;2022-12-31T16:01:13;36.97;;;19.17;;
71726;SDS011;65960;43.502;3.712;2022-12-31T16:03:47;33.13;;;17.80;;
71726;SDS011;65960;43.502;3.712;2022-12-31T16:06:14;30.33;;;15.88;;
71726;SDS011;65960;43.502;3.712;2022-12-31T16:08:44;39.38;;;16.63;;
71726;SDS011;65960;43.502;3.712;2022-12-31T16:11:11;32.65;;;15.23;;
71726;SDS011;65960;43.502;3.712;2022-12-31T16:13:44;35.90;;;16.75;;
71726;SDS011;65960;43.502;3.712;2022-12-31T16:18:51;37.10;;;14.32;;
71726;SDS011;65960;43.502;3.712;2022-12-31T16:23:54;43.03;;;20.17;;
71726;SDS011;65960;43.502;3.712;2022-12-31T16:26:22;43.72;;;16.05;;
71726;SDS011;65960;43.502;3.712;2022-12-31T16:28:51;42.20;;;13.35;;
71726;SDS011;65960;43.502;3.712;2022-12-31T16:31:19;35.65;;;10.05;;
71726;SDS011;65960;43.502;3.712;2022-12-31T16:33:45;38.13;;;12.10;;
71726;SDS011;65960;43.502;3.712;2022-12-31T16:36:19;32.95;;;10.52;;
71726;SDS011;65960;43.502;3.712;2022-12-31T16:38:47;36.05;;;11.70;;
71726;SDS011;65960;43.502;3.712;2022-12-31T16:41:19;41.58;;;11.32;;
71726;SDS011;65960;43.502;3.712;2022-12-31T16:43:46;36.67;;;10.83;;
71726;SDS011;65960;43.502;3.712;2022-12-31T16:46:29;39.45;;;10.75;;
71726;SDS011;65960;43.502;3.712;2022-12-31T16:48:57;26.92;;;9.98;;
71726;SDS011;65960;43.502;3.712;2022-12-31T16:51:30;35.88;;;10.02;;
71726;SDS011;65960;43.502;3.712;2022-12-31T16:53:56;28.98;;;7.65;;
71726;SDS011;65960;43.502;3.712;2022-12-31T16:56:25;31.08;;;7.35;;
71726;SDS011;65960;43.502;3.712;2022-12-31T16:58:56;33.75;;;7.80;;
71726;SDS011;65960;43.502;3.712;2022-12-31T17:01:27;38.55;;;9.10;;
71726;SDS011;65960;43.502;3.712;2022-12-31T17:04:00;32.78;;;9.10;;
71726;SDS011;65960;43.502;3.712;2022-12-31T17:06:28;36.08;;;8.63;;
71726;SDS011;65960;43.502;3.712;2022-12-31T17:11:56;34.97;;;9.38;;
71726;SDS011;65960;43.502;3.712;2022-12-31T17:14:33;35.25;;;9.27;;
71726;SDS011;65960;43.502;3.712;2022-12-31T17:17:13;45.03;;;10.73;;
71726;SDS011;65960;43.502;3.712;2022-12-31T17:19:46;37.42;;;9.25;;
71726;SDS011;65960;43.502;3.712;2022-12-31T17:22:21;27.63;;;7.85;;
71726;SDS011;65960;43.502;3.712;2022-12-31T17:24:50;31.95;;;7.95;;
71726;SDS011;65960;43.502;3.712;2022-12-31T17:27:23;36.90;;;7.75;;
71726;SDS011;65960;43.502;3.712;2022-12-31T17:29:49;35.95;;;8.63;;
71726;SDS011;65960;43.502;3.712;2022-12-31T17:34:47;34.55;;;9.95;;
71726;SDS011;65960;43.502;3.712;2022-12-31T17:37:15;28.88;;;7.13;;
71726;SDS011;65960;43.502;3.712;2022-12-31T17:39:53;30.80;;;7.03;;
71726;SDS011;65960;43.502;3.712;2022-12-31T17:45:02;33.65;;;8.20;;
71726;SDS011;65960;43.502;3.712;2022-12-31T17:47:38;31.92;;;7.90;;
71726;SDS011;65960;43.502;3.712;2022-12-31T17:50:15;31.27;;;7.35;;
71726;SDS011;65960;43.502;3.712;2022-12-31T17:52:44;24.73;;;6.50;;
71726;SDS011;65960;43.502;3.712;2022-12-31T17:55:10;30.15;;;8.65;;
71726;SDS011;65960;43.502;3.712;2022-12-31T17:57:36;35.58;;;8.05;;
71726;SDS011;65960;43.502;3.712;2022-12-31T18:00:09;25.00;;;6.75;;
71726;SDS011;65960;43.502;3.712;2022-12-31T18:02:40;27.23;;;7.60;;
71726;SDS011;65960;43.502;3.712;2022-12-31T18:05:13;32.15;;;8.00;;
71726;SDS011;65960;43.502;3.712;2022-12-31T18:07:40;34.38;;;7.13;;
71726;SDS011;65960;43.502;3.712;2022-12-31T18:10:06;31.20;;;7.18;;
71726;SDS011;65960;43.502;3.712;2022-12-31T18:12:32;34.45;;;7.68;;
71726;SDS011;65960;43.502;3.712;2022-12-31T18:14:59;29.98;;;7.63;;
71726;SDS011;65960;43.502;3.712;2022-12-31T18:17:26;30.23;;;7.60;;
71726;SDS011;65960;43.502;3.712;2022-12-31T18:19:52;26.50;;;6.25;;
71726;SDS011;65960;43.502;3.712;2022-12-31T18:22:18;28.83;;;6.97;;
71726;SDS011;65960;43.502;3.712;2022-12-31T18:24:44;28.10;;;6.72;;
71726;SDS011;65960;43.502;3.712;2022-12-31T18:27:14;27.55;;;6.63;;
71726;SDS011;65960;43.502;3.712;2022-12-31T18:29:41;31.30;;;7.32;;
71726;SDS011;65960;43.502;3.712;2022-12-31T18:32:13;33.58;;;8.00;;
71726;SDS011;65960;43.502;3.712;2022-12-31T18:34:42;25.80;;;7.10;;
71726;SDS011;65960;43.502;3.712;2022-12-31T18:37:11;32.40;;;7.13;;
71726;SDS011;65960;43.502;3.712;2022-12-31T18:39:37;26.05;;;6.55;;
71726;SDS011;65960;43.502;3.712;2022-12-31T18:42:04;28.50;;;7.07;;
71726;SDS011;65960;43.502;3.712;2022-12-31T18:44:30;33.20;;;7.40;;
71726;SDS011;65960;43.502;3.712;2022-12-31T18:46:56;31.58;;;7.30;;
71726;SDS011;65960;43.502;3.712;2022-12-31T18:49:22;36.88;;;8.43;;
71726;SDS011;65960;43.502;3.712;2022-12-31T18:51:48;28.63;;;6.63;;
71726;SDS011;65960;43.502;3.712;2022-12-31T18:54:18;25.50;;;6.65;;
71726;SDS011;65960;43.502;3.712;2022-12-31T18:56:44;27.40;;;6.95;;
71726;SDS011;65960;43.502;3.712;2022-12-31T18:59:10;27.77;;;7.07;;
71726;SDS011;65960;43.502;3.712;2022-12-31T19:01:38;24.60;;;6.60;;
71726;SDS011;65960;43.502;3.712;2022-12-31T19:04:17;32.15;;;7.45;;
71726;SDS011;65960;43.502;3.712;2022-12-31T19:06:44;30.90;;;8.00;;
71726;SDS011;65960;43.502;3.712;2022-12-31T19:09:10;29.10;;;6.72;;
71726;SDS011;65960;43.502;3.712;2022-12-31T19:11:40;27.15;;;7.68;;
71726;SDS011;65960;43.502;3.712;2022-12-31T19:14:16;30.98;;;7.18;;
71726;SDS011;65960;43.502;3.712;2022-12-31T19:16:44;25.88;;;7.43;;
71726;SDS011;65960;43.502;3.712;2022-12-31T19:19:10;30.98;;;7.03;;
71726;SDS011;65960;43.502;3.712;2022-12-31T19:21:38;26.60;;;6.65;;